createdAt,value
2019-02-15T00:01:05.480Z,6.05
2019-02-15T00:03:35.052Z,6.07
2019-02-15T00:06:04.590Z,6.11
2019-02-15T00:08:34.051Z,6.08
2019-02-15T00:11:03.308Z,6.13
2019-02-15T00:13:32.492Z,6.16
2019-02-15T00:16:01.795Z,6.25
2019-02-15T00:21:40.295Z,6.21
2019-02-15T00:24:09.800Z,6.17
2019-02-15T00:26:39.037Z,6.14
2019-02-15T00:29:08.206Z,6.16
2019-02-15T00:31:37.444Z,6.13
2019-02-15T00:34:06.638Z,6.11
2019-02-15T00:36:35.901Z,6.16
2019-02-15T00:39:44.467Z,6.12
2019-02-15T00:42:14.231Z,5.99
2019-02-15T00:44:43.424Z,5.99
2019-02-15T00:47:31.646Z,6.00
2019-02-15T00:53:20.360Z,5.89
2019-02-15T00:55:59.413Z,5.93
2019-02-15T00:58:47.611Z,5.78
2019-02-15T01:01:35.734Z,5.72
2019-02-15T01:04:23.932Z,5.62
2019-02-15T01:07:12.106Z,5.53
2019-02-15T01:10:00.231Z,5.40
2019-02-15T01:12:48.407Z,5.29
2019-02-15T01:15:17.677Z,5.21
2019-02-15T01:17:46.924Z,5.20
2019-02-15T01:20:16.111Z,5.32
2019-02-15T01:22:45.354Z,5.40
2019-02-15T01:25:14.661Z,5.46
2019-02-15T01:30:43.895Z,5.58
2019-02-15T01:33:32.096Z,5.60
2019-02-15T01:36:20.204Z,5.62
2019-02-15T01:38:58.160Z,5.59
2019-02-15T01:41:46.584Z,5.48
2019-02-15T01:44:34.753Z,5.47
2019-02-15T01:47:22.924Z,5.46
2019-02-15T01:49:52.168Z,5.58
2019-02-15T01:52:40.441Z,5.59
2019-02-15T01:55:09.701Z,5.62
2019-02-15T01:57:38.890Z,5.66
2019-02-15T02:00:11.158Z,5.64
2019-02-15T02:02:40.345Z,5.58
2019-02-15T02:05:09.971Z,5.49
2019-02-15T02:07:39.153Z,5.38
2019-02-15T02:10:10.362Z,5.34
2019-02-15T02:12:39.947Z,5.31
2019-02-15T02:15:10.783Z,5.33
2019-02-15T02:17:39.981Z,5.50
2019-02-15T02:20:10.126Z,5.41
2019-02-15T02:22:39.374Z,5.21
2019-02-15T02:25:08.590Z,5.13
2019-02-15T02:27:37.837Z,5.08
2019-02-15T02:30:27.538Z,5.05
2019-02-15T02:32:57.058Z,5.02
2019-02-15T02:35:26.251Z,5.05
2019-02-15T02:37:55.884Z,5.13
2019-02-15T02:40:25.358Z,5.10
2019-02-15T02:42:54.607Z,5.07
2019-02-15T02:45:23.851Z,5.03
2019-02-15T02:47:53.464Z,5.10
2019-02-15T02:50:22.668Z,5.12
2019-02-15T02:52:52.267Z,5.04
2019-02-15T02:55:21.478Z,4.91
2019-02-15T02:57:50.994Z,4.81
2019-02-15T03:00:20.186Z,4.76
2019-02-15T03:02:49.410Z,4.69
2019-02-15T03:05:18.652Z,4.60
2019-02-15T03:07:47.862Z,4.61
2019-02-15T03:10:56.962Z,4.52
2019-02-15T03:13:26.156Z,4.52
2019-02-15T03:15:55.445Z,4.57
2019-02-15T03:18:24.645Z,4.55
2019-02-15T03:20:53.878Z,4.55
2019-02-15T03:23:23.058Z,4.53
2019-02-15T03:25:52.327Z,4.56
2019-02-15T03:28:21.509Z,4.60
2019-02-15T03:30:50.765Z,4.59
2019-02-15T03:33:19.968Z,4.48
2019-02-15T03:36:08.360Z,4.43
2019-02-15T03:41:41.126Z,4.38
2019-02-15T03:44:10.302Z,4.43
2019-02-15T03:46:39.602Z,4.41
2019-02-15T03:49:08.781Z,4.39
2019-02-15T03:51:38.032Z,4.34
2019-02-15T03:54:07.214Z,4.41
2019-02-15T03:56:36.509Z,4.42
2019-02-15T03:59:12.675Z,4.44
2019-02-15T04:01:41.874Z,4.52
2019-02-15T04:04:11.112Z,4.42
2019-02-15T04:06:40.310Z,4.44
2019-02-15T04:09:09.561Z,4.36
2019-02-15T04:11:38.773Z,4.24
2019-02-15T04:14:08.003Z,4.10
2019-02-15T04:16:37.189Z,4.00
2019-02-15T04:19:06.442Z,3.91
2019-02-15T04:21:35.639Z,3.83
2019-02-15T04:24:04.864Z,3.81
2019-02-15T04:26:34.076Z,3.84
2019-02-15T04:29:03.265Z,3.84
2019-02-15T04:31:32.513Z,3.95
2019-02-15T04:34:01.705Z,3.98
2019-02-15T04:36:30.937Z,3.91
2019-02-15T04:39:00.122Z,3.89
2019-02-15T04:41:29.360Z,3.84
2019-02-15T04:43:58.535Z,3.86
2019-02-15T04:46:27.837Z,3.90
2019-02-15T04:48:57.037Z,3.84
2019-02-15T04:51:26.284Z,3.76
2019-02-15T04:53:55.819Z,3.68
2019-02-15T04:56:25.011Z,3.61
2019-02-15T04:58:54.264Z,3.58
2019-02-15T05:01:23.855Z,3.53
2019-02-15T05:03:53.096Z,3.48
2019-02-15T05:06:22.282Z,3.48
2019-02-15T05:08:51.532Z,3.51
2019-02-15T05:11:20.712Z,3.52
2019-02-15T05:13:50.240Z,3.68
2019-02-15T05:16:19.444Z,3.70
2019-02-15T05:18:48.698Z,3.72
2019-02-15T05:21:18.246Z,3.73
2019-02-15T05:23:47.503Z,3.79
2019-02-15T05:26:16.700Z,3.83
2019-02-15T05:28:45.883Z,3.81
2019-02-15T05:31:15.132Z,3.78
2019-02-15T05:33:44.335Z,3.75
2019-02-15T05:36:13.580Z,3.72
2019-02-15T05:38:42.768Z,3.64
2019-02-15T05:41:12.343Z,3.69
2019-02-15T05:43:41.670Z,3.70
2019-02-15T05:46:10.967Z,3.68
2019-02-15T05:48:40.164Z,3.66
2019-02-15T05:51:09.416Z,3.84
2019-02-15T05:53:38.622Z,3.87
2019-02-15T05:56:07.882Z,3.87
2019-02-15T05:58:37.078Z,3.91
2019-02-15T06:03:40.696Z,3.95
2019-02-15T06:06:09.956Z,3.99
2019-02-15T06:08:39.150Z,3.96
2019-02-15T06:11:08.536Z,3.93
2019-02-15T06:13:37.782Z,3.87
2019-02-15T06:16:07.255Z,3.82
2019-02-15T06:18:36.874Z,3.74
2019-02-15T06:21:06.372Z,3.74
2019-02-15T06:23:35.611Z,3.73
2019-02-15T06:26:04.814Z,3.75
2019-02-15T06:28:34.077Z,3.72
2019-02-15T06:31:03.262Z,3.75
2019-02-15T06:33:32.784Z,3.89
2019-02-15T06:36:01.982Z,3.88
2019-02-15T06:38:34.821Z,3.91
2019-02-15T06:41:02.774Z,3.93
2019-02-15T06:43:32.315Z,4.01
2019-02-15T06:46:01.702Z,4.01
2019-02-15T06:48:30.880Z,4.01
2019-02-15T06:51:00.115Z,4.05
2019-02-15T06:53:29.318Z,4.05
2019-02-15T06:55:58.571Z,3.99
2019-02-15T06:58:27.883Z,3.96
2019-02-15T07:01:16.062Z,3.98
2019-02-15T07:04:04.195Z,4.07
2019-02-15T07:06:33.449Z,4.22
2019-02-15T07:09:02.652Z,4.37
2019-02-15T07:11:31.894Z,4.43
2019-02-15T07:14:01.361Z,4.52
2019-02-15T07:16:30.897Z,4.60
2019-02-15T07:19:00.089Z,4.78
2019-02-15T07:21:29.341Z,5.07
2019-02-15T07:23:58.534Z,5.23
2019-02-15T07:26:27.778Z,5.40
2019-02-15T07:28:56.993Z,5.44
2019-02-15T07:31:26.239Z,5.50
2019-02-15T07:33:55.732Z,5.39
2019-02-15T07:36:24.986Z,5.40
2019-02-15T07:38:54.198Z,5.43
2019-02-15T07:41:23.390Z,5.50
2019-02-15T07:43:52.921Z,5.56
2019-02-15T07:46:22.158Z,5.54
2019-02-15T07:48:51.405Z,5.56
2019-02-15T07:51:20.914Z,5.63
2019-02-15T07:53:50.391Z,5.67
2019-02-15T07:56:19.657Z,5.77
2019-02-15T07:58:48.844Z,5.84
2019-02-15T08:01:18.093Z,5.91
2019-02-15T08:03:47.310Z,5.84
2019-02-15T08:06:16.591Z,5.77
2019-02-15T08:08:45.808Z,5.73
2019-02-15T08:11:15.051Z,5.78
2019-02-15T08:13:44.571Z,5.86
2019-02-15T08:16:13.866Z,5.91
2019-02-15T08:18:43.045Z,6.00
2019-02-15T08:21:13.302Z,6.12
2019-02-15T08:23:43.262Z,6.30
2019-02-15T08:26:12.602Z,6.49
2019-02-15T08:28:41.808Z,6.64
2019-02-15T08:31:11.005Z,6.72
2019-02-15T08:33:40.256Z,6.90
2019-02-15T08:36:09.462Z,7.03
2019-02-15T08:38:38.709Z,6.92
2019-02-15T08:41:07.903Z,6.79
2019-02-15T08:43:37.157Z,6.76
2019-02-15T08:46:06.409Z,6.87
2019-02-15T08:48:36.245Z,6.98
2019-02-15T08:51:06.927Z,7.20
2019-02-15T08:53:36.213Z,7.50
2019-02-15T08:56:05.504Z,7.78
2019-02-15T08:58:34.720Z,8.04
2019-02-15T09:01:04.264Z,8.22
2019-02-15T09:03:33.568Z,8.31
2019-02-15T09:06:03.175Z,8.52
2019-02-15T09:08:32.432Z,8.73
2019-02-15T09:11:02.431Z,8.89
2019-02-15T09:13:32.858Z,9.00
2019-02-15T09:16:10.140Z,9.04
2019-02-15T09:18:33.309Z,9.10
2019-02-15T09:21:02.593Z,9.28
2019-02-15T09:23:31.819Z,9.41
2019-02-15T09:26:01.074Z,9.40
2019-02-15T09:28:49.196Z,9.52
2019-02-15T09:31:18.442Z,9.63
2019-02-15T09:33:47.684Z,9.75
2019-02-15T09:36:17.517Z,9.87
2019-02-15T09:38:46.701Z,9.97
2019-02-15T09:41:16.309Z,10.02
2019-02-15T09:43:45.506Z,10.05
2019-02-15T09:46:19.979Z,10.25
2019-02-15T09:48:46.469Z,10.39
2019-02-15T09:51:15.725Z,10.47
2019-02-15T09:53:44.931Z,10.57
2019-02-15T09:56:14.210Z,10.61
2019-02-15T09:58:43.407Z,10.68
2019-02-15T10:01:12.703Z,10.74
2019-02-15T10:03:41.885Z,10.80
2019-02-15T10:06:11.135Z,10.84
2019-02-15T10:08:40.350Z,10.91
2019-02-15T10:13:52.182Z,11.06
2019-02-15T10:16:28.793Z,11.13
2019-02-15T10:18:52.418Z,11.16
2019-02-15T10:21:21.612Z,11.25
2019-02-15T10:23:50.854Z,11.31
2019-02-15T10:26:20.111Z,11.31
2019-02-15T10:28:49.366Z,11.33
2019-02-15T10:31:18.562Z,11.42
2019-02-15T10:33:47.911Z,11.52
2019-02-15T10:36:18.900Z,11.52
2019-02-15T10:38:48.106Z,11.54
2019-02-15T10:41:18.045Z,11.62
2019-02-15T10:43:47.300Z,11.72
2019-02-15T10:46:16.563Z,11.77
2019-02-15T10:48:45.822Z,11.86
2019-02-15T10:51:15.352Z,11.98
2019-02-15T10:53:44.606Z,12.00
2019-02-15T10:56:13.854Z,12.09
2019-02-15T10:58:43.085Z,12.19
2019-02-15T11:01:12.326Z,12.17
2019-02-15T11:03:41.520Z,12.16
2019-02-15T11:06:10.795Z,12.23
2019-02-15T11:08:39.989Z,12.28
2019-02-15T11:11:09.190Z,12.28
2019-02-15T11:13:38.430Z,12.30
2019-02-15T11:16:07.940Z,12.25
2019-02-15T11:18:37.191Z,12.29
2019-02-15T11:21:06.389Z,12.30
2019-02-15T11:23:35.653Z,12.31
2019-02-15T11:26:04.861Z,12.35
2019-02-15T11:28:34.218Z,12.39
2019-02-15T11:31:03.544Z,12.30
2019-02-15T11:33:32.732Z,12.33
2019-02-15T11:36:02.012Z,12.34
2019-02-15T11:38:31.196Z,12.39
2019-02-15T11:41:00.445Z,12.41
2019-02-15T11:43:29.631Z,12.43
2019-02-15T11:45:58.941Z,12.43
2019-02-15T11:48:29.496Z,12.46
2019-02-15T11:51:00.018Z,12.43
2019-02-15T11:53:29.377Z,12.48
2019-02-15T11:55:58.620Z,12.54
2019-02-15T11:58:27.803Z,12.48
2019-02-15T12:00:57.082Z,12.46
2019-02-15T12:03:26.285Z,12.43
2019-02-15T12:05:55.736Z,12.36
2019-02-15T12:08:26.995Z,12.39
2019-02-15T12:10:56.259Z,12.38
2019-02-15T12:13:25.498Z,12.42
2019-02-15T12:15:54.705Z,12.46
2019-02-15T12:18:24.002Z,12.48
2019-02-15T12:20:53.208Z,12.48
2019-02-15T12:23:22.456Z,12.48
2019-02-15T12:25:51.669Z,12.46
2019-02-15T12:28:20.917Z,12.48
2019-02-15T12:30:50.120Z,12.45
2019-02-15T12:33:19.372Z,12.38
2019-02-15T12:35:48.558Z,12.31
2019-02-15T12:38:17.759Z,12.32
2019-02-15T12:40:47.310Z,12.32
2019-02-15T12:43:16.514Z,12.30
2019-02-15T12:45:45.812Z,12.28
2019-02-15T12:48:15.007Z,12.29
2019-02-15T12:53:49.616Z,12.25
2019-02-15T12:56:19.152Z,12.16
2019-02-15T12:58:48.347Z,12.19
2019-02-15T13:01:17.594Z,12.18
2019-02-15T13:03:46.864Z,12.24
2019-02-15T13:06:16.114Z,12.34
2019-02-15T13:08:45.356Z,12.25
2019-02-15T13:11:14.723Z,12.20
2019-02-15T13:13:43.929Z,12.24
2019-02-15T13:16:13.169Z,12.27
2019-02-15T13:18:42.359Z,12.34
2019-02-15T13:21:11.695Z,12.40
2019-02-15T13:23:40.897Z,12.44
2019-02-15T13:26:10.127Z,12.46
2019-02-15T13:28:39.415Z,12.52
2019-02-15T13:31:08.604Z,12.48
2019-02-15T13:33:38.260Z,12.51
2019-02-15T13:36:07.554Z,12.58
2019-02-15T13:38:36.743Z,12.65
2019-02-15T13:41:06.021Z,12.74
2019-02-15T13:43:35.238Z,12.85
2019-02-15T13:46:04.538Z,12.91
2019-02-15T13:48:33.798Z,13.03
2019-02-15T13:51:03.073Z,13.18
2019-02-15T13:53:32.249Z,13.40
2019-02-15T13:56:01.573Z,13.55
2019-02-15T13:58:31.099Z,13.70
2019-02-15T14:01:00.869Z,13.85
2019-02-15T14:03:30.069Z,14.03
2019-02-15T14:05:59.325Z,14.19
2019-02-15T14:08:28.515Z,14.35
2019-02-15T14:10:57.800Z,14.46
2019-02-15T14:13:27.098Z,14.65
2019-02-15T14:15:56.673Z,14.84
2019-02-15T14:18:25.924Z,15.09
2019-02-15T14:20:55.128Z,15.27
2019-02-15T14:23:24.759Z,15.46
2019-02-15T14:25:53.956Z,15.56
2019-02-15T14:28:23.227Z,15.71
2019-02-15T14:30:52.426Z,15.97
2019-02-15T14:33:22.022Z,16.26
2019-02-15T14:35:51.258Z,16.49
2019-02-15T14:38:20.588Z,16.70
2019-02-15T14:40:49.838Z,16.94
2019-02-15T14:43:19.135Z,17.11
2019-02-15T14:45:48.389Z,17.33
2019-02-15T14:48:19.970Z,17.58
2019-02-15T14:50:49.362Z,17.85
2019-02-15T14:53:18.987Z,18.18
2019-02-15T14:55:48.366Z,18.54
2019-02-15T14:58:17.805Z,19.04
2019-02-15T15:00:47.072Z,21.26
2019-02-15T15:03:16.241Z,23.64
2019-02-15T15:05:45.511Z,25.81
2019-02-15T15:08:14.708Z,27.34
2019-02-15T15:10:44.330Z,28.79
2019-02-15T15:13:13.526Z,30.37
2019-02-15T15:15:42.805Z,31.34
2019-02-15T15:18:13.498Z,32.34
2019-02-15T15:20:42.933Z,32.95
2019-02-15T15:23:12.187Z,33.56
2019-02-15T15:25:41.367Z,33.79
2019-02-15T15:28:10.622Z,33.96
2019-02-15T15:30:39.817Z,34.48
2019-02-15T15:33:09.455Z,34.78
2019-02-15T15:35:38.762Z,34.91
2019-02-15T15:38:08.032Z,34.76
2019-02-15T15:40:37.216Z,34.55
2019-02-15T15:43:06.472Z,34.51
2019-02-15T15:45:36.025Z,34.18
2019-02-15T15:48:05.339Z,32.89
2019-02-15T15:50:34.535Z,29.60
2019-02-15T15:53:23.035Z,26.34
2019-02-15T15:55:52.284Z,23.77
2019-02-15T15:58:21.567Z,21.32
2019-02-15T16:00:50.868Z,19.74
2019-02-15T16:03:20.218Z,18.50
2019-02-15T16:05:49.522Z,17.53
2019-02-15T16:08:18.733Z,16.72
2019-02-15T16:10:47.982Z,16.09
2019-02-15T16:13:17.176Z,15.56
2019-02-15T16:15:46.430Z,15.13
2019-02-15T16:18:15.625Z,14.79
2019-02-15T16:20:45.202Z,14.48
2019-02-15T16:23:14.389Z,14.20
2019-02-15T16:25:44.036Z,13.99
2019-02-15T16:28:13.512Z,13.82
2019-02-15T16:30:42.756Z,13.62
2019-02-15T16:33:12.188Z,13.46
2019-02-15T16:35:41.437Z,13.33
2019-02-15T16:38:10.636Z,13.11
2019-02-15T16:40:39.899Z,12.98
2019-02-15T16:43:09.119Z,12.92
2019-02-15T16:45:38.370Z,12.86
2019-02-15T16:48:07.655Z,12.68
2019-02-15T16:50:36.840Z,12.54
2019-02-15T16:53:06.090Z,12.50
2019-02-15T16:55:35.290Z,12.43
2019-02-15T16:58:04.916Z,12.41
2019-02-15T17:00:34.109Z,12.32
2019-02-15T17:03:03.359Z,12.28
2019-02-15T17:05:32.557Z,12.16
2019-02-15T17:08:01.820Z,12.04
2019-02-15T17:10:31.302Z,11.97
2019-02-15T17:13:19.677Z,11.83
2019-02-15T17:15:48.861Z,11.78
2019-02-15T17:18:18.102Z,11.64
2019-02-15T17:20:47.393Z,11.58
2019-02-15T17:23:16.632Z,11.55
2019-02-15T17:25:46.092Z,11.47
2019-02-15T17:28:15.257Z,11.47
2019-02-15T17:30:44.613Z,11.43
2019-02-15T17:33:14.160Z,11.43
2019-02-15T17:35:43.423Z,11.35
2019-02-15T17:38:12.955Z,11.32
2019-02-15T17:40:42.238Z,11.21
2019-02-15T17:43:11.776Z,11.17
2019-02-15T17:45:41.480Z,11.06
2019-02-15T17:48:11.010Z,10.97
2019-02-15T17:50:40.265Z,10.94
2019-02-15T17:53:09.474Z,10.97
2019-02-15T17:55:38.790Z,10.98
2019-02-15T17:58:08.090Z,10.93
2019-02-15T18:00:37.313Z,10.89
2019-02-15T18:03:07.106Z,10.82
2019-02-15T18:05:36.338Z,10.80
2019-02-15T18:08:05.584Z,10.75
2019-02-15T18:10:34.776Z,10.68
2019-02-15T18:13:04.442Z,10.60
2019-02-15T18:15:33.999Z,10.60
2019-02-15T18:18:03.269Z,10.51
2019-02-15T18:20:32.486Z,10.56
2019-02-15T18:23:01.662Z,10.52
2019-02-15T18:25:30.911Z,10.51
2019-02-15T18:28:00.124Z,10.49
2019-02-15T18:30:29.692Z,10.48
2019-02-15T18:32:58.909Z,10.45
2019-02-15T18:35:28.174Z,10.38
2019-02-15T18:37:58.009Z,10.37
2019-02-15T18:40:27.412Z,10.32
2019-02-15T18:42:56.605Z,10.24
2019-02-15T18:45:25.863Z,10.22
2019-02-15T18:47:55.125Z,10.20
2019-02-15T18:50:24.372Z,10.16
2019-02-15T18:52:53.577Z,10.12
2019-02-15T18:55:23.104Z,10.06
2019-02-15T18:57:52.316Z,10.05
2019-02-15T19:00:21.557Z,9.98
2019-02-15T19:02:51.108Z,9.90
2019-02-15T19:05:20.357Z,9.90
2019-02-15T19:07:49.545Z,9.82
2019-02-15T19:10:19.126Z,9.92
2019-02-15T19:12:48.320Z,9.88
2019-02-15T19:15:17.569Z,9.84
2019-02-15T19:17:46.809Z,9.76
2019-02-15T19:20:16.049Z,9.80
2019-02-15T19:22:45.253Z,9.74
2019-02-15T19:25:14.480Z,9.68
2019-02-15T19:27:43.757Z,9.62
2019-02-15T19:30:15.856Z,9.58
2019-02-15T19:32:45.323Z,9.45
2019-02-15T19:35:14.499Z,9.25
2019-02-15T19:37:44.113Z,9.30
2019-02-15T19:40:13.554Z,9.37
2019-02-15T19:42:44.776Z,9.39
2019-02-15T19:45:14.298Z,9.34
2019-02-15T19:47:43.659Z,9.39
2019-02-15T19:50:14.242Z,9.37
2019-02-15T19:52:43.756Z,9.29
2019-02-15T19:55:12.981Z,9.29
2019-02-15T19:57:42.464Z,9.30
2019-02-15T20:00:16.594Z,9.22
2019-02-15T20:02:45.830Z,9.16
2019-02-15T20:05:15.134Z,9.05
2019-02-15T20:07:45.133Z,9.01
2019-02-15T20:10:16.272Z,9.06
2019-02-15T20:12:45.504Z,9.05
2019-02-15T20:15:15.199Z,9.03
2019-02-15T20:17:44.870Z,9.00
2019-02-15T20:20:14.217Z,9.03
2019-02-15T20:22:43.454Z,9.07
2019-02-15T20:25:12.728Z,9.04
2019-02-15T20:27:41.932Z,8.98
2019-02-15T20:30:13.808Z,8.98
2019-02-15T20:32:43.017Z,8.95
2019-02-15T20:35:13.557Z,9.00
2019-02-15T20:37:43.716Z,8.97
2019-02-15T20:40:13.016Z,8.93
2019-02-15T20:42:42.283Z,8.91
2019-02-15T20:45:14.359Z,8.88
2019-02-15T20:47:43.667Z,8.93
2019-02-15T20:50:12.987Z,8.89
2019-02-15T20:52:42.217Z,8.90
2019-02-15T20:55:12.951Z,8.82
2019-02-15T20:57:42.201Z,8.73
2019-02-15T21:00:13.904Z,8.64
2019-02-15T21:02:43.523Z,8.54
2019-02-15T21:05:13.128Z,8.55
2019-02-15T21:07:42.317Z,8.62
2019-02-15T21:10:11.825Z,8.37
2019-02-15T21:12:41.018Z,8.44
2019-02-15T21:15:10.790Z,8.48
2019-02-15T21:17:39.975Z,8.43
2019-02-15T21:20:49.414Z,8.45
2019-02-15T21:23:18.997Z,8.41
2019-02-15T21:25:48.180Z,8.42
2019-02-15T21:28:17.683Z,8.42
2019-02-15T21:30:48.016Z,8.41
2019-02-15T21:33:17.833Z,8.40
2019-02-15T21:35:47.080Z,8.36
2019-02-15T21:38:16.340Z,8.25
2019-02-15T21:40:45.579Z,8.19
2019-02-15T21:43:15.117Z,8.13
2019-02-15T21:45:44.371Z,8.07
2019-02-15T21:48:13.809Z,7.90
2019-02-15T21:50:43.387Z,7.84
2019-02-15T21:53:12.671Z,7.83
2019-02-15T21:55:41.928Z,7.85
2019-02-15T21:58:11.143Z,7.91
2019-02-15T22:00:40.498Z,7.98
2019-02-15T22:03:10.140Z,7.95
2019-02-15T22:05:39.410Z,7.97
2019-02-15T22:08:08.597Z,7.97
2019-02-15T22:10:37.788Z,8.06
2019-02-15T22:13:07.047Z,8.08
2019-02-15T22:15:36.533Z,8.11
2019-02-15T22:18:05.801Z,8.02
2019-02-15T22:20:35.000Z,7.97
2019-02-15T22:23:04.515Z,7.90
2019-02-15T22:25:33.780Z,7.85
2019-02-15T22:28:02.989Z,7.90
2019-02-15T22:30:32.218Z,7.96
2019-02-15T22:33:01.499Z,7.87
2019-02-15T22:35:31.089Z,7.83
2019-02-15T22:38:00.288Z,7.83
2019-02-15T22:40:49.600Z,7.80
2019-02-15T22:43:21.247Z,7.71
2019-02-15T22:45:50.496Z,7.63
2019-02-15T22:48:20.070Z,7.60
2019-02-15T22:50:49.326Z,7.56
2019-02-15T22:53:18.512Z,7.60
2019-02-15T22:55:48.021Z,7.70
2019-02-15T22:58:17.231Z,7.62
2019-02-15T23:01:27.471Z,7.64
2019-02-15T23:03:56.692Z,7.56
2019-02-15T23:06:25.941Z,7.43
2019-02-15T23:08:55.139Z,7.33
2019-02-15T23:11:24.723Z,7.15
2019-02-15T23:13:53.917Z,6.92
2019-02-15T23:16:23.174Z,6.82
2019-02-15T23:18:52.371Z,6.79
2019-02-15T23:21:21.635Z,6.77
2019-02-15T23:23:50.848Z,6.67
2019-02-15T23:26:20.043Z,6.65
2019-02-15T23:28:49.534Z,6.59
2019-02-15T23:31:18.707Z,6.53
2019-02-15T23:33:47.969Z,6.48
2019-02-15T23:36:17.169Z,6.44
2019-02-15T23:38:46.724Z,6.35
2019-02-15T23:41:16.222Z,6.39
2019-02-15T23:43:45.528Z,6.39
2019-02-15T23:46:14.728Z,6.37
2019-02-15T23:48:44.035Z,6.33
2019-02-15T23:51:13.232Z,6.37
2019-02-15T23:53:42.478Z,6.36
2019-02-15T23:56:11.667Z,6.30
2019-02-15T23:58:40.904Z,6.21
